createdAt,value
2023-05-14T00:02:13.382Z,99564.41
2023-05-14T00:04:41.517Z,99555.75
2023-05-14T00:07:09.269Z,99557.53
2023-05-14T00:09:36.720Z,99553.63
2023-05-14T00:12:04.481Z,99556.06
2023-05-14T00:14:31.987Z,99551.22
2023-05-14T00:16:59.816Z,99552.09
2023-05-14T00:19:27.735Z,99542.81
2023-05-14T00:21:55.111Z,99542.66
2023-05-14T00:24:22.520Z,99547.75
2023-05-14T00:26:50.233Z,99544.34
2023-05-14T00:29:17.691Z,99543.75
2023-05-14T00:31:45.286Z,99541.72
2023-05-14T00:34:13.040Z,99534.13
2023-05-14T00:36:40.506Z,99530.63
2023-05-14T00:39:07.915Z,99530.53
2023-05-14T00:41:35.786Z,99530.13
2023-05-14T00:44:03.417Z,99530.91
2023-05-14T00:46:30.909Z,99522.13
2023-05-14T00:48:58.869Z,99519.13
2023-05-14T00:51:26.293Z,99517.53
2023-05-14T00:53:55.188Z,99513.16
2023-05-14T00:56:23.248Z,99518.31
2023-05-14T00:58:50.719Z,99515.66
2023-05-14T01:01:18.209Z,99510.88
2023-05-14T01:03:46.133Z,99498.16
2023-05-14T01:06:28.222Z,99499.03
2023-05-14T01:09:09.040Z,99494.69
2023-05-14T01:11:42.607Z,99498.56
2023-05-14T01:14:24.058Z,99493.97
2023-05-14T01:16:54.717Z,99489.87
2023-05-14T01:19:30.142Z,99493.47
2023-05-14T01:21:57.564Z,99487.41
2023-05-14T01:24:25.306Z,99484.75
2023-05-14T01:26:53.845Z,99486.41
2023-05-14T01:29:26.941Z,99487.81
2023-05-14T01:31:56.167Z,99479.44
2023-05-14T01:34:24.819Z,99481.06
2023-05-14T01:36:53.591Z,99470.69
2023-05-14T01:39:22.905Z,99470.06
2023-05-14T01:41:51.316Z,99461.34
2023-05-14T01:44:19.626Z,99459.41
2023-05-14T01:46:47.382Z,99450.88
2023-05-14T01:49:16.088Z,99453.34
2023-05-14T01:51:43.626Z,99446.47
2023-05-14T01:54:11.301Z,99440.38
2023-05-14T01:56:39.214Z,99434.44
2023-05-14T01:59:07.000Z,99430.06
2023-05-14T02:01:34.823Z,99436.25
2023-05-14T02:04:02.756Z,99438.88
2023-05-14T02:06:31.644Z,99436.28
2023-05-14T02:08:59.146Z,99436.37
2023-05-14T02:11:26.835Z,99433.88
2023-05-14T02:13:54.475Z,99431.31
2023-05-14T02:16:21.964Z,99444.09
2023-05-14T02:18:52.301Z,99430.22
2023-05-14T02:21:20.721Z,99444.25
2023-05-14T02:23:49.630Z,99439.72
2023-05-14T02:26:17.088Z,99433.34
2023-05-14T02:28:45.813Z,99433.06
2023-05-14T02:31:14.428Z,99427.66
2023-05-14T02:33:42.498Z,99435.78
2023-05-14T02:36:10.434Z,99423.81
2023-05-14T02:38:38.377Z,99430.16
2023-05-14T02:41:05.758Z,99430.41
2023-05-14T02:43:33.381Z,99438.22
2023-05-14T02:46:00.815Z,99430.16
2023-05-14T02:48:28.220Z,99427.47
2023-05-14T02:50:55.910Z,99437.53
2023-05-14T02:53:23.306Z,99430.72
2023-05-14T02:55:50.704Z,99423.41
2023-05-14T02:58:19.173Z,99423.28
2023-05-14T03:00:52.917Z,99423.59
2023-05-14T03:03:21.147Z,99421.87
2023-05-14T03:05:48.994Z,99412.84
2023-05-14T03:08:16.415Z,99408.69
2023-05-14T03:10:44.060Z,99419.03
2023-05-14T03:13:11.650Z,99417.03
2023-05-14T03:15:39.039Z,99423.97
2023-05-14T03:18:06.768Z,99418.47
2023-05-14T03:20:34.173Z,99410.84
2023-05-14T03:23:01.584Z,99418.41
2023-05-14T03:25:29.328Z,99413.22
2023-05-14T03:27:56.762Z,99406.00
2023-05-14T03:30:24.510Z,99403.41
2023-05-14T03:32:52.905Z,99399.31
2023-05-14T03:35:20.598Z,99406.09
2023-05-14T03:37:48.026Z,99409.03
2023-05-14T03:40:15.727Z,99412.41
2023-05-14T03:42:43.909Z,99407.94
2023-05-14T03:45:11.329Z,99412.06
2023-05-14T03:47:39.032Z,99407.31
2023-05-14T03:50:07.739Z,99407.44
2023-05-14T03:52:35.141Z,99395.50
2023-05-14T03:55:03.728Z,99386.47
2023-05-14T03:57:31.114Z,99395.84
2023-05-14T03:59:58.631Z,99393.56
2023-05-14T04:02:26.793Z,99390.06
2023-05-14T04:04:56.149Z,99391.53
2023-05-14T04:07:23.716Z,99400.66
2023-05-14T04:09:51.097Z,99403.03
2023-05-14T04:12:18.930Z,99398.78
2023-05-14T04:14:46.360Z,99391.13
2023-05-14T04:17:13.828Z,99391.94
2023-05-14T04:19:41.478Z,99391.72
2023-05-14T04:22:08.888Z,99392.94
2023-05-14T04:24:36.309Z,99395.50
2023-05-14T04:27:04.410Z,99392.75
2023-05-14T04:29:31.839Z,99395.25
2023-05-14T04:31:59.742Z,99385.63
2023-05-14T04:34:27.488Z,99390.47
2023-05-14T04:36:54.894Z,99384.37
2023-05-14T04:39:22.443Z,99387.88
2023-05-14T04:41:50.066Z,99393.09
2023-05-14T04:44:17.479Z,99397.53
2023-05-14T04:46:44.864Z,99394.91
2023-05-14T04:49:12.767Z,99393.72
2023-05-14T04:51:40.136Z,99394.75
2023-05-14T04:54:07.676Z,99400.19
2023-05-14T04:56:35.359Z,99390.66
2023-05-14T04:59:02.737Z,99388.06
2023-05-14T05:01:30.253Z,99391.37
2023-05-14T05:03:58.229Z,99377.59
2023-05-14T05:06:25.837Z,99381.19
2023-05-14T05:08:53.175Z,99386.22
2023-05-14T05:11:21.328Z,99389.59
2023-05-14T05:13:48.697Z,99379.06
2023-05-14T05:16:16.193Z,99385.44
2023-05-14T05:18:44.713Z,99377.81
2023-05-14T05:21:12.122Z,99383.59
2023-05-14T05:23:39.631Z,99375.91
2023-05-14T05:26:07.353Z,99377.91
2023-05-14T05:28:34.828Z,99380.06
2023-05-14T05:31:02.238Z,99380.78
2023-05-14T05:33:29.953Z,99368.72
2023-05-14T05:35:57.295Z,99379.81
2023-05-14T05:38:24.715Z,99379.09
2023-05-14T05:40:52.723Z,99374.63
2023-05-14T05:43:20.128Z,99372.94
2023-05-14T05:45:47.557Z,99379.19
2023-05-14T05:48:15.386Z,99380.66
2023-05-14T05:50:44.801Z,99375.81
2023-05-14T05:53:12.528Z,99383.47
2023-05-14T05:55:41.018Z,99382.31
2023-05-14T05:58:08.403Z,99383.66
2023-05-14T06:00:35.831Z,99390.47
2023-05-14T06:03:03.631Z,99384.37
2023-05-14T06:05:31.084Z,99383.47
2023-05-14T06:07:58.604Z,99396.53
2023-05-14T06:10:26.342Z,99397.59
2023-05-14T06:12:53.893Z,99388.38
2023-05-14T06:15:21.321Z,99389.34
2023-05-14T06:17:49.053Z,99392.63
2023-05-14T06:20:16.676Z,99397.63
2023-05-14T06:22:44.367Z,99399.22
2023-05-14T06:25:12.133Z,99401.94
2023-05-14T06:27:39.515Z,99395.03
2023-05-14T06:30:07.488Z,99395.75
2023-05-14T06:32:35.222Z,99396.75
2023-05-14T06:35:02.741Z,99392.31
2023-05-14T06:37:30.159Z,99396.69
2023-05-14T06:39:58.113Z,99394.09
2023-05-14T06:42:26.554Z,99382.66
2023-05-14T06:44:54.615Z,99380.75
2023-05-14T06:47:22.402Z,99376.78
2023-05-14T06:49:50.070Z,99377.00
2023-05-14T06:52:17.466Z,99384.91
2023-05-14T06:54:45.136Z,99369.03
2023-05-14T06:57:12.526Z,99381.41
2023-05-14T06:59:39.931Z,99379.34
2023-05-14T07:02:07.878Z,99373.69
2023-05-14T07:04:36.492Z,99364.28
2023-05-14T07:07:04.255Z,99368.09
2023-05-14T07:09:31.930Z,99362.81
2023-05-14T07:11:59.384Z,99353.84
2023-05-14T07:14:26.799Z,99357.59
2023-05-14T07:16:54.494Z,99359.22
2023-05-14T07:19:22.349Z,99359.16
2023-05-14T07:21:49.735Z,99351.44
2023-05-14T07:24:17.481Z,99346.00
2023-05-14T07:26:45.003Z,99348.84
2023-05-14T07:29:12.473Z,99346.34
2023-05-14T07:31:40.422Z,99349.78
2023-05-14T07:34:08.629Z,99353.25
2023-05-14T07:36:36.038Z,99356.69
2023-05-14T07:39:03.739Z,99347.34
2023-05-14T07:41:31.127Z,99332.72
2023-05-14T07:43:58.494Z,99339.59
2023-05-14T07:46:26.256Z,99343.28
2023-05-14T07:48:53.654Z,99330.34
2023-05-14T07:51:21.016Z,99331.16
2023-05-14T07:53:48.736Z,99332.94
2023-05-14T07:56:16.123Z,99330.19
2023-05-14T07:58:43.746Z,99315.72
2023-05-14T08:01:11.626Z,99319.16
2023-05-14T08:03:39.538Z,99315.78
2023-05-14T08:06:07.005Z,99314.19
2023-05-14T08:08:34.431Z,99304.59
2023-05-14T08:11:03.926Z,99301.09
2023-05-14T08:13:31.394Z,99295.84
2023-05-14T08:15:58.984Z,99290.59
2023-05-14T08:18:29.755Z,99293.22
2023-05-14T08:20:57.346Z,99288.78
2023-05-14T08:23:26.474Z,99286.25
2023-05-14T08:25:54.167Z,99285.37
2023-05-14T08:28:30.250Z,99280.97
2023-05-14T08:30:58.165Z,99282.84
2023-05-14T08:33:25.660Z,99270.66
2023-05-14T08:35:53.369Z,99277.66
2023-05-14T08:38:21.364Z,99269.78
2023-05-14T08:40:50.146Z,99272.31
2023-05-14T08:43:20.814Z,99269.66
2023-05-14T08:45:53.015Z,99267.16
2023-05-14T08:48:22.452Z,99268.94
2023-05-14T08:50:50.636Z,99262.03
2023-05-14T08:53:18.322Z,99268.13
2023-05-14T08:55:48.725Z,99268.91
2023-05-14T08:58:16.885Z,99258.56
2023-05-14T09:00:44.284Z,99276.00
2023-05-14T09:03:12.605Z,99268.06
2023-05-14T09:05:41.160Z,99270.72
2023-05-14T09:08:08.507Z,99270.66
2023-05-14T09:10:36.134Z,99270.72
2023-05-14T09:13:04.224Z,99266.34
2023-05-14T09:15:32.974Z,99262.88
2023-05-14T09:18:00.502Z,99257.69
2023-05-14T09:20:28.684Z,99258.53
2023-05-14T09:22:56.737Z,99260.25
2023-05-14T09:25:27.264Z,99251.59
2023-05-14T09:27:57.333Z,99244.69
2023-05-14T09:30:26.962Z,99239.44
2023-05-14T09:32:55.134Z,99230.81
2023-05-14T09:35:24.023Z,99231.69
2023-05-14T09:37:55.224Z,99231.69
2023-05-14T09:40:24.377Z,99229.94
2023-05-14T09:42:52.322Z,99228.22
2023-05-14T09:45:19.757Z,99209.09
2023-05-14T09:47:47.554Z,99217.78
2023-05-14T09:50:15.178Z,99215.19
2023-05-14T09:52:42.594Z,99209.94
2023-05-14T09:55:10.576Z,99207.38
2023-05-14T09:57:38.148Z,99202.13
2023-05-14T10:00:06.794Z,99198.69
2023-05-14T10:02:38.800Z,99183.84
2023-05-14T10:05:07.580Z,99167.31
2023-05-14T10:07:44.553Z,99163.03
2023-05-14T10:10:16.683Z,99165.66
2023-05-14T10:12:49.057Z,99150.03
2023-05-14T10:15:21.169Z,99133.53
2023-05-14T10:17:56.693Z,99129.12
2023-05-14T10:20:27.190Z,99119.56
2023-05-14T10:22:54.630Z,99103.06
2023-05-14T10:25:22.475Z,99098.75
2023-05-14T10:27:50.884Z,99105.66
2023-05-14T10:30:21.749Z,99118.69
2023-05-14T10:32:49.576Z,99127.38
2023-05-14T10:35:22.951Z,99140.34
2023-05-14T10:37:51.592Z,99137.69
2023-05-14T10:40:19.591Z,99123.84
2023-05-14T10:42:47.062Z,99137.75
2023-05-14T10:45:15.648Z,99129.94
2023-05-14T10:47:45.924Z,99131.66
2023-05-14T10:50:16.035Z,99123.81
2023-05-14T10:52:44.924Z,99125.66
2023-05-14T10:55:16.605Z,99125.66
2023-05-14T10:57:46.141Z,99132.59
2023-05-14T11:00:15.185Z,99118.66
2023-05-14T11:02:44.500Z,99122.19
2023-05-14T11:05:16.058Z,99129.16
2023-05-14T11:07:45.632Z,99120.47
2023-05-14T11:10:22.432Z,99116.06
2023-05-14T11:12:51.068Z,99107.41
2023-05-14T11:15:21.066Z,99106.59
2023-05-14T11:17:49.943Z,99106.50
2023-05-14T11:20:18.038Z,99110.03
2023-05-14T11:22:47.302Z,99110.88
2023-05-14T11:25:15.226Z,99103.94
2023-05-14T11:27:45.018Z,99101.28
2023-05-14T11:30:20.165Z,99115.22
2023-05-14T11:32:49.053Z,99101.41
2023-05-14T11:35:17.813Z,99107.47
2023-05-14T11:37:54.620Z,99119.66
2023-05-14T11:40:22.813Z,99110.97
2023-05-14T11:42:52.544Z,99107.50
2023-05-14T11:45:26.812Z,99110.94
2023-05-14T11:47:57.470Z,99101.41
2023-05-14T11:50:25.102Z,99106.63
2023-05-14T11:52:57.654Z,99094.47
2023-05-14T11:55:25.499Z,99095.34
2023-05-14T11:57:52.905Z,99098.81
2023-05-14T12:00:21.716Z,99091.00
2023-05-14T12:02:50.447Z,99089.25
2023-05-14T12:05:18.704Z,99075.38
2023-05-14T12:07:46.393Z,99078.00
2023-05-14T12:10:14.115Z,99076.25
2023-05-14T12:12:45.622Z,99073.56
2023-05-14T12:15:13.803Z,99066.59
2023-05-14T12:17:41.873Z,99061.41
2023-05-14T12:20:11.061Z,99052.56
2023-05-14T12:22:39.034Z,99047.53
2023-05-14T12:25:12.980Z,99047.56
2023-05-14T12:27:40.496Z,99050.16
2023-05-14T12:32:40.918Z,99043.22
2023-05-14T12:35:09.170Z,99049.28
2023-05-14T12:37:37.555Z,99042.41
2023-05-14T12:40:09.203Z,99044.12
2023-05-14T12:42:37.229Z,99045.00
2023-05-14T12:45:08.050Z,99054.50
2023-05-14T12:47:36.480Z,99048.47
2023-05-14T12:50:04.804Z,99045.84
2023-05-14T12:52:38.394Z,99033.66
2023-05-14T12:55:10.170Z,99032.81
2023-05-14T12:57:38.885Z,99019.81
2023-05-14T13:00:09.884Z,99021.53
2023-05-14T13:02:42.534Z,99007.66
2023-05-14T13:05:12.143Z,99001.59
2023-05-14T13:07:39.693Z,98991.19
2023-05-14T13:10:07.567Z,98998.12
2023-05-14T13:12:35.348Z,98998.97
2023-05-14T13:15:02.742Z,98995.50
2023-05-14T13:17:32.189Z,98985.13
2023-05-14T13:19:59.872Z,98979.03
2023-05-14T13:22:27.242Z,98973.84
2023-05-14T13:24:54.605Z,98974.72
2023-05-14T13:27:22.233Z,98969.47
2023-05-14T13:29:49.594Z,98958.22
2023-05-14T13:32:16.972Z,98953.88
2023-05-14T13:34:44.673Z,98961.69
2023-05-14T13:37:12.087Z,98958.22
2023-05-14T13:39:41.054Z,98946.94
2023-05-14T13:42:09.089Z,98945.19
2023-05-14T13:44:36.838Z,98948.69
2023-05-14T13:47:04.463Z,98940.00
2023-05-14T13:49:32.214Z,98937.41
2023-05-14T13:51:59.592Z,98939.16
2023-05-14T13:54:27.011Z,98925.25
2023-05-14T13:56:54.728Z,98934.78
2023-05-14T13:59:24.542Z,98931.31
2023-05-14T14:01:52.080Z,98924.41
2023-05-14T14:04:20.029Z,98926.13
2023-05-14T14:06:47.546Z,98914.00
2023-05-14T14:09:15.031Z,98920.91
2023-05-14T14:11:42.746Z,98917.47
2023-05-14T14:14:10.159Z,98919.19
2023-05-14T14:16:37.692Z,98917.44
2023-05-14T14:19:05.703Z,98925.19
2023-05-14T14:21:34.135Z,98921.75
2023-05-14T14:24:02.187Z,98917.44
2023-05-14T14:26:29.906Z,98925.25
2023-05-14T14:28:57.342Z,98915.72
2023-05-14T14:31:24.908Z,98913.13
2023-05-14T14:33:52.698Z,98907.91
2023-05-14T14:36:20.106Z,98909.66
2023-05-14T14:38:47.514Z,98913.13
2023-05-14T14:41:15.355Z,98905.31
2023-05-14T14:43:43.530Z,98900.97
2023-05-14T14:46:11.180Z,98907.91
2023-05-14T14:48:39.022Z,98897.50
2023-05-14T14:51:07.624Z,98896.66
2023-05-14T14:53:36.061Z,98900.09
2023-05-14T14:56:04.128Z,98899.22
2023-05-14T14:58:31.776Z,98894.06
2023-05-14T15:01:01.187Z,98886.22
2023-05-14T15:03:29.365Z,98879.31
2023-05-14T15:05:56.966Z,98871.50
2023-05-14T15:08:27.989Z,98862.78
2023-05-14T15:10:56.271Z,98866.31
2023-05-14T15:13:24.620Z,98863.72
2023-05-14T15:15:52.631Z,98856.78
2023-05-14T15:18:20.630Z,98856.78
2023-05-14T15:20:48.334Z,98861.97
2023-05-14T15:23:15.744Z,98856.78
2023-05-14T15:25:43.424Z,98856.78
2023-05-14T15:28:10.938Z,98855.91
2023-05-14T15:30:38.383Z,98855.91
2023-05-14T15:33:08.558Z,98865.41
2023-05-14T15:35:36.593Z,98869.78
2023-05-14T15:38:04.202Z,98857.66
2023-05-14T15:40:33.142Z,98855.03
2023-05-14T15:43:00.716Z,98863.66
2023-05-14T15:45:28.321Z,98857.63
2023-05-14T15:47:56.037Z,98854.16
2023-05-14T15:50:23.753Z,98843.78
2023-05-14T15:52:51.338Z,98830.78
2023-05-14T15:55:19.140Z,98817.78
2023-05-14T15:57:46.525Z,98812.59
2023-05-14T16:00:14.424Z,98795.22
2023-05-14T16:02:42.136Z,98797.00
2023-05-14T16:05:09.756Z,98795.25
2023-05-14T16:07:37.477Z,98794.38
2023-05-14T16:10:06.107Z,98796.97
2023-05-14T16:12:33.590Z,98800.38
2023-05-14T16:15:01.204Z,98809.06
2023-05-14T16:17:30.490Z,98809.94
2023-05-14T16:19:57.957Z,98802.19
2023-05-14T16:22:25.386Z,98805.66
2023-05-14T16:24:53.112Z,98796.09
2023-05-14T16:27:20.514Z,98800.44
2023-05-14T16:29:47.997Z,98801.31
2023-05-14T16:32:15.750Z,98800.44
2023-05-14T16:34:49.714Z,98794.41
2023-05-14T16:37:19.880Z,98797.00
2023-05-14T16:39:47.518Z,98790.03
2023-05-14T16:42:15.015Z,98790.03
2023-05-14T16:44:42.752Z,98791.75
2023-05-14T16:47:10.436Z,98784.88
2023-05-14T16:49:37.824Z,98771.84
2023-05-14T16:52:06.229Z,98775.25
2023-05-14T16:54:33.616Z,98767.53
2023-05-14T16:57:01.116Z,98770.94
2023-05-14T16:59:28.884Z,98766.66
2023-05-14T17:01:56.316Z,98764.06
2023-05-14T17:04:26.571Z,98763.22
2023-05-14T17:06:54.643Z,98760.59
2023-05-14T17:09:22.277Z,98760.56
2023-05-14T17:11:50.040Z,98758.84
2023-05-14T17:14:17.774Z,98752.78
2023-05-14T17:16:45.353Z,98751.87
2023-05-14T17:19:12.815Z,98741.50
2023-05-14T17:21:40.614Z,98737.84
2023-05-14T17:24:08.174Z,98732.72
2023-05-14T17:26:35.740Z,98735.37
2023-05-14T17:29:03.619Z,98726.66
2023-05-14T17:31:31.233Z,98723.25
2023-05-14T17:33:58.887Z,98714.59
2023-05-14T17:36:28.634Z,98704.09
2023-05-14T17:38:56.097Z,98708.56
2023-05-14T17:41:23.576Z,98721.56
2023-05-14T17:43:52.529Z,98720.69
2023-05-14T17:46:19.996Z,98707.63
2023-05-14T17:49:01.392Z,98705.87
2023-05-14T17:51:32.086Z,98711.13
2023-05-14T17:53:59.672Z,98703.25
2023-05-14T17:56:27.127Z,98697.91
2023-05-14T17:58:54.787Z,98696.94
2023-05-14T18:01:22.198Z,98691.63
2023-05-14T18:03:49.974Z,98691.31
2023-05-14T18:06:17.594Z,98688.69
2023-05-14T18:08:45.663Z,98686.22
2023-05-14T18:11:13.408Z,98683.13
2023-05-14T18:13:41.088Z,98674.63
2023-05-14T18:16:08.712Z,98680.63
2023-05-14T18:18:36.490Z,98680.56
2023-05-14T18:21:04.683Z,98687.41
2023-05-14T18:23:32.360Z,98691.78
2023-05-14T18:26:00.517Z,98699.75
2023-05-14T18:28:28.591Z,98700.69
2023-05-14T18:30:56.561Z,98705.69
2023-05-14T18:33:24.304Z,98690.94
2023-05-14T18:35:52.110Z,98692.69
2023-05-14T18:38:20.003Z,98699.63
2023-05-14T18:40:47.957Z,98697.66
2023-05-14T18:43:16.753Z,98700.38
2023-05-14T18:45:48.445Z,98694.47
2023-05-14T18:48:16.914Z,98698.75
2023-05-14T18:50:47.766Z,98683.03
2023-05-14T18:53:15.520Z,98698.66
2023-05-14T18:55:43.757Z,98701.19
2023-05-14T18:58:12.148Z,98706.22
2023-05-14T19:00:39.542Z,98702.09
2023-05-14T19:03:07.569Z,98696.97
2023-05-14T19:05:35.505Z,98701.50
2023-05-14T19:08:03.818Z,98685.94
2023-05-14T19:10:35.033Z,98682.44
2023-05-14T19:13:03.351Z,98678.06
2023-05-14T19:15:30.868Z,98691.09
2023-05-14T19:17:58.590Z,98685.91
2023-05-14T19:20:26.185Z,98683.13
2023-05-14T19:22:53.842Z,98675.37
2023-05-14T19:25:21.537Z,98681.56
2023-05-14T19:27:51.299Z,98682.44
2023-05-14T19:30:20.218Z,98678.81
2023-05-14T19:32:48.103Z,98665.88
2023-05-14T19:35:15.729Z,98663.25
2023-05-14T19:37:43.142Z,98674.56
2023-05-14T19:40:11.357Z,98662.38
2023-05-14T19:42:38.915Z,98651.06
2023-05-14T19:45:06.674Z,98652.78
2023-05-14T19:47:35.065Z,98664.00
2023-05-14T19:50:04.972Z,98662.31
2023-05-14T19:52:33.349Z,98658.84
2023-05-14T19:55:01.793Z,98663.34
2023-05-14T19:57:30.586Z,98654.63
2023-05-14T19:59:59.015Z,98643.38
2023-05-14T20:02:26.940Z,98652.13
2023-05-14T20:04:55.700Z,98650.34
2023-05-14T20:07:25.041Z,98659.91
2023-05-14T20:09:53.352Z,98653.63
2023-05-14T20:12:21.427Z,98650.13
2023-05-14T20:14:49.580Z,98644.09
2023-05-14T20:17:17.390Z,98646.75
2023-05-14T20:19:45.719Z,98644.97
2023-05-14T20:22:13.431Z,98645.75
2023-05-14T20:24:41.665Z,98651.03
2023-05-14T20:27:13.124Z,98643.34
2023-05-14T20:29:41.409Z,98637.16
2023-05-14T20:35:13.252Z,98635.38
2023-05-14T20:37:41.385Z,98628.44
2023-05-14T20:40:12.781Z,98622.37
2023-05-14T20:42:40.217Z,98616.38
2023-05-14T20:45:08.672Z,98608.75
2023-05-14T20:47:36.431Z,98605.13
2023-05-14T20:50:04.725Z,98605.13
2023-05-14T20:52:32.542Z,98608.50
2023-05-14T20:55:01.820Z,98603.28
2023-05-14T20:57:29.803Z,98588.69
2023-05-14T20:59:57.804Z,98574.81
2023-05-14T21:02:25.349Z,98571.41
2023-05-14T21:04:52.881Z,98571.19
2023-05-14T21:07:20.621Z,98566.81
2023-05-14T21:09:52.724Z,98574.81
2023-05-14T21:12:21.361Z,98573.72
2023-05-14T21:14:49.108Z,98560.81
2023-05-14T21:17:16.535Z,98569.19
2023-05-14T21:19:43.965Z,98565.91
2023-05-14T21:22:12.573Z,98562.56
2023-05-14T21:24:39.923Z,98567.44
2023-05-14T21:27:07.336Z,98565.09
2023-05-14T21:29:35.044Z,98559.94
2023-05-14T21:32:02.514Z,98540.09
2023-05-14T21:34:31.877Z,98535.03
2023-05-14T21:36:59.850Z,98537.59
2023-05-14T21:39:27.215Z,98524.56
2023-05-14T21:41:54.641Z,98522.00
2023-05-14T21:44:22.321Z,98502.00
2023-05-14T21:46:49.725Z,98491.56
2023-05-14T21:49:17.999Z,98504.50
2023-05-14T21:51:53.073Z,98506.28
2023-05-14T21:54:21.114Z,98521.22
2023-05-14T21:56:49.151Z,98507.97
2023-05-14T21:59:16.765Z,98526.09
2023-05-14T22:02:06.416Z,98539.97
2023-05-14T22:04:48.268Z,98542.41
2023-05-14T22:07:15.885Z,98532.69
2023-05-14T22:09:43.801Z,98535.38
2023-05-14T22:12:11.527Z,98539.63
2023-05-14T22:14:39.333Z,98551.06
2023-05-14T22:17:07.447Z,98543.78
2023-05-14T22:19:35.191Z,98548.28
2023-05-14T22:22:03.140Z,98542.38
2023-05-14T22:24:31.162Z,98544.78
2023-05-14T22:26:59.075Z,98541.31
2023-05-14T22:29:26.684Z,98536.19
2023-05-14T22:31:54.396Z,98530.19
2023-05-14T22:34:21.777Z,98532.75
2023-05-14T22:36:49.163Z,98532.59
2023-05-14T22:39:19.204Z,98539.66
2023-05-14T22:41:46.626Z,98541.56
2023-05-14T22:44:14.168Z,98533.38
2023-05-14T22:46:42.469Z,98539.66
2023-05-14T22:49:09.908Z,98535.16
2023-05-14T22:51:37.280Z,98538.56
2023-05-14T22:54:05.342Z,98539.13
2023-05-14T22:56:32.788Z,98531.16
2023-05-14T22:59:00.407Z,98540.09
2023-05-14T23:01:29.262Z,98542.94
2023-05-14T23:03:56.760Z,98525.94
2023-05-14T23:06:25.241Z,98521.94
2023-05-14T23:08:52.952Z,98523.72
2023-05-14T23:11:21.416Z,98510.47
2023-05-14T23:13:48.822Z,98512.47
2023-05-14T23:16:16.536Z,98504.88
2023-05-14T23:18:44.235Z,98499.66
2023-05-14T23:21:12.828Z,98498.69
2023-05-14T23:23:40.476Z,98491.13
2023-05-14T23:26:07.867Z,98481.16
2023-05-14T23:28:35.225Z,98479.06
2023-05-14T23:31:03.102Z,98478.03
2023-05-14T23:33:30.690Z,98470.66
2023-05-14T23:35:58.211Z,98471.84
2023-05-14T23:38:25.988Z,98472.75
2023-05-14T23:40:53.448Z,98476.28
2023-05-14T23:43:20.851Z,98469.31
2023-05-14T23:45:48.624Z,98461.87
2023-05-14T23:48:15.998Z,98459.81
2023-05-14T23:50:43.946Z,98451.66
2023-05-14T23:53:11.610Z,98450.19
2023-05-14T23:55:39.039Z,98441.75
2023-05-14T23:58:06.512Z,98441.06
